createdAt,value
2023-07-24T00:01:26.023Z,4.60
2023-07-24T00:03:53.137Z,4.93
2023-07-24T00:06:20.368Z,4.10
2023-07-24T00:08:47.465Z,4.33
2023-07-24T00:11:14.604Z,4.47
2023-07-24T00:13:41.696Z,4.80
2023-07-24T00:16:10.634Z,4.30
2023-07-24T00:18:37.712Z,4.50
2023-07-24T00:21:04.797Z,5.03
2023-07-24T00:23:31.903Z,4.40
2023-07-24T00:25:59.080Z,4.73
2023-07-24T00:28:26.148Z,4.43
2023-07-24T00:30:53.746Z,3.83
2023-07-24T00:33:22.637Z,4.37
2023-07-24T00:35:49.706Z,4.70
2023-07-24T00:38:16.812Z,4.53
2023-07-24T00:40:43.902Z,4.70
2023-07-24T00:43:12.691Z,3.67
2023-07-24T00:45:39.821Z,4.40
2023-07-24T00:48:07.141Z,4.63
2023-07-24T00:50:36.752Z,5.23
2023-07-24T00:53:03.887Z,4.63
2023-07-24T00:55:31.065Z,4.10
2023-07-24T00:57:59.440Z,4.40
2023-07-24T01:00:26.641Z,5.00
2023-07-24T01:02:53.808Z,4.70
2023-07-24T01:05:21.658Z,4.20
2023-07-24T01:07:50.094Z,4.23
2023-07-24T01:10:17.277Z,4.77
2023-07-24T01:12:47.368Z,5.20
2023-07-24T01:15:17.422Z,4.57
2023-07-24T01:17:47.411Z,5.23
2023-07-24T01:20:15.966Z,4.50
2023-07-24T01:22:49.964Z,5.10
2023-07-24T01:25:20.280Z,4.80
2023-07-24T01:27:49.741Z,5.20
2023-07-24T01:30:18.464Z,5.27
2023-07-24T01:32:45.920Z,6.20
2023-07-24T01:35:13.230Z,5.43
2023-07-24T01:37:41.729Z,6.00
2023-07-24T01:40:09.582Z,5.77
2023-07-24T01:42:36.988Z,6.07
2023-07-24T01:45:06.087Z,5.40
2023-07-24T01:47:33.708Z,6.70
2023-07-24T01:50:00.975Z,6.00
2023-07-24T01:52:28.060Z,6.60
2023-07-24T01:54:55.302Z,6.00
2023-07-24T01:57:22.511Z,6.83
2023-07-24T01:59:49.603Z,6.00
2023-07-24T02:02:18.135Z,6.50
2023-07-24T02:04:45.234Z,6.40
2023-07-24T02:07:12.361Z,6.73
2023-07-24T02:09:39.466Z,6.93
2023-07-24T02:12:07.383Z,5.60
2023-07-24T02:14:34.662Z,6.33
2023-07-24T02:17:01.895Z,6.40
2023-07-24T02:19:30.650Z,6.20
2023-07-24T02:21:57.772Z,7.27
2023-07-24T02:24:24.916Z,6.37
2023-07-24T02:26:52.086Z,6.43
2023-07-24T02:29:19.202Z,6.70
2023-07-24T02:31:46.417Z,6.17
2023-07-24T02:34:13.519Z,7.30
2023-07-24T02:36:43.333Z,6.00
2023-07-24T02:39:10.648Z,5.67
2023-07-24T02:41:37.845Z,6.47
2023-07-24T02:44:05.196Z,6.10
2023-07-24T02:46:32.709Z,6.60
2023-07-24T02:49:00.071Z,6.20
2023-07-24T02:51:27.338Z,6.67
2023-07-24T02:53:56.112Z,6.40
2023-07-24T02:56:23.211Z,7.23
2023-07-24T02:58:50.455Z,6.07
2023-07-24T03:01:17.564Z,6.80
2023-07-24T03:03:44.730Z,6.13
2023-07-24T03:06:11.957Z,6.87
2023-07-24T03:08:39.013Z,5.93
2023-07-24T03:11:07.839Z,6.47
2023-07-24T03:13:34.936Z,6.00
2023-07-24T03:16:02.254Z,7.00
2023-07-24T03:18:29.457Z,7.07
2023-07-24T03:20:58.729Z,6.93
2023-07-24T03:23:25.936Z,6.40
2023-07-24T03:25:53.044Z,6.90
2023-07-24T03:28:21.510Z,6.33
2023-07-24T03:30:48.738Z,6.27
2023-07-24T03:33:16.213Z,7.20
2023-07-24T03:35:43.346Z,7.00
2023-07-24T03:38:10.533Z,7.00
2023-07-24T03:40:37.683Z,7.47
2023-07-24T03:43:05.070Z,6.83
2023-07-24T03:45:33.757Z,6.47
2023-07-24T03:48:00.911Z,6.87
2023-07-24T03:50:28.136Z,6.20
2023-07-24T03:52:55.221Z,6.90
2023-07-24T03:55:22.433Z,6.90
2023-07-24T03:57:49.523Z,6.83
2023-07-24T04:00:16.710Z,6.90
2023-07-24T04:02:45.123Z,6.40
2023-07-24T04:05:12.266Z,6.97
2023-07-24T04:07:39.414Z,6.77
2023-07-24T04:10:07.352Z,6.73
2023-07-24T04:12:34.463Z,6.60
2023-07-24T04:15:01.595Z,6.90
2023-07-24T04:17:28.779Z,6.67
2023-07-24T04:19:57.301Z,6.90
2023-07-24T04:22:24.425Z,6.53
2023-07-24T04:24:51.528Z,6.23
2023-07-24T04:27:18.810Z,5.97
2023-07-24T04:29:45.887Z,6.20
2023-07-24T04:32:12.946Z,6.50
2023-07-24T04:34:40.135Z,6.60
2023-07-24T04:37:08.614Z,5.60
2023-07-24T04:39:35.701Z,5.57
2023-07-24T04:42:02.807Z,7.57
2023-07-24T04:44:29.895Z,7.17
2023-07-24T04:46:57.257Z,6.50
2023-07-24T04:49:24.482Z,6.83
2023-07-24T04:51:51.936Z,5.10
2023-07-24T04:54:20.335Z,6.60
2023-07-24T04:56:47.503Z,6.10
2023-07-24T04:59:14.576Z,5.50
2023-07-24T05:01:41.703Z,5.70
2023-07-24T05:04:08.853Z,5.10
2023-07-24T05:06:35.992Z,6.13
2023-07-24T05:09:03.135Z,5.17
2023-07-24T05:11:31.556Z,6.10
2023-07-24T05:13:58.624Z,5.93
2023-07-24T05:16:25.713Z,6.00
2023-07-24T05:18:52.822Z,5.90
2023-07-24T05:21:19.957Z,6.07
2023-07-24T05:23:47.064Z,6.70
2023-07-24T05:26:14.164Z,5.60
2023-07-24T05:28:42.550Z,7.23
2023-07-24T05:31:09.848Z,6.70
2023-07-24T05:33:36.958Z,5.63
2023-07-24T05:36:05.306Z,6.20
2023-07-24T05:38:32.766Z,5.97
2023-07-24T05:41:00.368Z,6.20
2023-07-24T05:43:27.949Z,6.10
2023-07-24T05:45:57.386Z,5.53
2023-07-24T05:48:24.960Z,5.50
2023-07-24T05:50:52.178Z,5.93
2023-07-24T05:53:19.299Z,5.90
2023-07-24T05:55:46.425Z,5.33
2023-07-24T05:58:13.713Z,5.07
2023-07-24T06:00:40.840Z,5.40
2023-07-24T06:03:09.371Z,5.73
2023-07-24T06:05:36.568Z,5.37
2023-07-24T06:08:03.689Z,4.57
2023-07-24T06:10:30.868Z,5.43
2023-07-24T06:12:58.018Z,5.13
2023-07-24T06:15:25.089Z,5.47
2023-07-24T06:17:54.707Z,5.37
2023-07-24T06:20:23.518Z,5.10
2023-07-24T06:22:50.655Z,4.07
2023-07-24T06:25:17.902Z,5.30
2023-07-24T06:27:45.029Z,4.40
2023-07-24T06:30:16.113Z,4.33
2023-07-24T06:32:43.870Z,5.30
2023-07-24T06:35:11.169Z,4.63
2023-07-24T06:37:39.652Z,3.77
2023-07-24T06:40:07.712Z,4.20
2023-07-24T06:42:34.986Z,4.43
2023-07-24T06:45:02.397Z,4.80
2023-07-24T06:47:29.639Z,4.20
2023-07-24T06:49:56.779Z,3.90
2023-07-24T06:52:23.894Z,4.43
2023-07-24T06:54:52.357Z,4.70
2023-07-24T06:57:19.442Z,4.00
2023-07-24T06:59:46.674Z,4.03
2023-07-24T07:02:13.847Z,4.10
2023-07-24T07:04:40.965Z,4.13
2023-07-24T07:07:09.192Z,5.13
2023-07-24T07:09:36.315Z,3.53
2023-07-24T07:12:04.963Z,4.67
2023-07-24T07:14:32.132Z,3.50
2023-07-24T07:16:59.304Z,3.97
2023-07-24T07:19:26.432Z,3.50
2023-07-24T07:21:53.556Z,4.33
2023-07-24T07:24:20.689Z,3.30
2023-07-24T07:26:47.839Z,3.63
2023-07-24T07:29:16.308Z,4.07
2023-07-24T07:31:43.400Z,4.40
2023-07-24T07:34:10.738Z,3.87
2023-07-24T07:36:37.866Z,3.47
2023-07-24T07:39:04.981Z,3.40
2023-07-24T07:41:32.096Z,3.40
2023-07-24T07:43:59.336Z,3.30
2023-07-24T07:46:27.862Z,3.17
2023-07-24T07:48:55.211Z,3.57
2023-07-24T07:51:22.353Z,3.37
2023-07-24T07:53:49.402Z,3.30
2023-07-24T07:56:16.486Z,3.30
2023-07-24T07:58:43.615Z,2.87
2023-07-24T08:01:10.744Z,3.70
2023-07-24T08:03:39.314Z,2.57
2023-07-24T08:06:06.541Z,2.80
2023-07-24T08:08:33.609Z,3.00
2023-07-24T08:11:05.088Z,4.27
2023-07-24T08:13:32.250Z,3.17
2023-07-24T08:15:59.355Z,3.73
2023-07-24T08:18:26.593Z,2.87
2023-07-24T08:20:55.094Z,3.17
2023-07-24T08:23:22.210Z,2.60
2023-07-24T08:25:52.770Z,2.67
2023-07-24T08:28:19.939Z,3.60
2023-07-24T08:30:47.053Z,3.63
2023-07-24T08:33:14.224Z,3.43
2023-07-24T08:35:41.330Z,3.10
2023-07-24T08:38:09.746Z,3.77
2023-07-24T08:40:36.820Z,2.97
2023-07-24T08:43:03.942Z,3.70
2023-07-24T08:45:31.524Z,3.43
2023-07-24T08:47:58.700Z,3.17
2023-07-24T08:50:26.746Z,3.63
2023-07-24T08:52:53.861Z,3.20
2023-07-24T08:55:22.910Z,3.20
2023-07-24T08:57:50.038Z,3.70
2023-07-24T09:00:17.532Z,3.50
2023-07-24T09:02:44.900Z,3.57
2023-07-24T09:05:12.082Z,3.13
2023-07-24T09:07:39.443Z,3.17
2023-07-24T09:10:08.315Z,3.43
2023-07-24T09:12:41.661Z,3.80
2023-07-24T09:15:10.251Z,3.67
2023-07-24T09:17:37.356Z,3.23
2023-07-24T09:20:05.003Z,3.30
2023-07-24T09:22:32.990Z,3.70
2023-07-24T09:25:01.570Z,3.60
2023-07-24T09:27:29.808Z,3.07
2023-07-24T09:30:00.370Z,3.57
2023-07-24T09:32:28.607Z,3.37
2023-07-24T09:34:55.907Z,3.87
2023-07-24T09:37:26.422Z,3.97
2023-07-24T09:39:53.970Z,4.43
2023-07-24T09:42:28.821Z,3.90
2023-07-24T09:44:55.952Z,3.83
2023-07-24T09:47:33.029Z,3.90
2023-07-24T09:50:11.939Z,3.77
2023-07-24T09:52:41.109Z,3.60
2023-07-24T09:55:12.333Z,3.80
2023-07-24T09:57:40.667Z,4.50
2023-07-24T10:00:08.506Z,3.40
2023-07-24T10:02:37.915Z,3.70
2023-07-24T10:05:05.409Z,3.77
2023-07-24T10:07:33.263Z,3.20
2023-07-24T10:10:00.719Z,3.10
2023-07-24T10:12:28.239Z,3.60
2023-07-24T10:17:25.928Z,3.20
2023-07-24T10:19:53.095Z,2.90
2023-07-24T10:22:20.530Z,2.90
2023-07-24T10:24:47.824Z,3.00
2023-07-24T10:27:15.172Z,3.10
2023-07-24T10:29:42.318Z,3.33
2023-07-24T10:32:20.261Z,3.80
2023-07-24T10:34:56.910Z,3.90
2023-07-24T10:37:32.675Z,3.27
2023-07-24T10:39:59.761Z,3.60
2023-07-24T10:42:26.892Z,3.33
2023-07-24T10:45:03.101Z,3.33
2023-07-24T10:47:31.586Z,3.37
2023-07-24T10:49:59.228Z,2.87
2023-07-24T10:52:29.194Z,2.87
2023-07-24T10:54:56.353Z,3.40
2023-07-24T10:57:26.792Z,2.70
2023-07-24T10:59:54.135Z,2.93
2023-07-24T11:02:21.268Z,3.07
2023-07-24T11:04:49.713Z,2.60
2023-07-24T11:07:16.977Z,2.70
2023-07-24T11:09:44.164Z,2.83
2023-07-24T11:12:12.197Z,2.97
2023-07-24T11:14:47.437Z,2.40
2023-07-24T11:17:14.554Z,3.03
2023-07-24T11:19:41.694Z,2.93
2023-07-24T11:22:10.155Z,4.07
2023-07-24T11:24:43.653Z,3.87
2023-07-24T11:27:12.147Z,2.57
2023-07-24T11:29:39.645Z,3.10
2023-07-24T11:32:07.043Z,3.13
2023-07-24T11:34:34.485Z,3.33
2023-07-24T11:37:01.807Z,3.57
2023-07-24T11:39:30.239Z,2.43
2023-07-24T11:41:57.354Z,3.70
2023-07-24T11:44:28.398Z,2.37
2023-07-24T11:47:01.916Z,2.37
2023-07-24T11:49:29.604Z,5.20
2023-07-24T11:52:00.816Z,3.37
2023-07-24T11:54:29.334Z,3.37
2023-07-24T11:56:56.480Z,3.10
2023-07-24T11:59:23.679Z,2.97
2023-07-24T12:01:50.736Z,2.70
2023-07-24T12:04:18.184Z,2.70
2023-07-24T12:06:45.481Z,2.73
2023-07-24T12:09:12.934Z,3.03
2023-07-24T12:11:46.669Z,2.50
2023-07-24T12:14:14.963Z,4.53
2023-07-24T12:16:42.135Z,6.53
2023-07-24T12:19:09.331Z,3.53
2023-07-24T12:21:36.399Z,2.47
2023-07-24T12:24:03.566Z,2.40
2023-07-24T12:26:30.873Z,1.80
2023-07-24T12:28:59.288Z,2.30
2023-07-24T12:31:26.503Z,2.00
2023-07-24T12:33:53.635Z,2.13
2023-07-24T12:36:21.116Z,2.53
2023-07-24T12:38:48.199Z,2.67
2023-07-24T12:41:15.295Z,2.20
2023-07-24T12:43:42.400Z,2.57
2023-07-24T12:46:10.838Z,2.13
2023-07-24T12:48:38.015Z,2.50
2023-07-24T12:51:05.107Z,3.03
2023-07-24T12:53:36.149Z,2.30
2023-07-24T12:56:09.352Z,2.30
2023-07-24T12:58:36.467Z,2.27
2023-07-24T13:01:03.671Z,2.20
2023-07-24T13:03:32.279Z,3.20
2023-07-24T13:05:59.611Z,2.57
2023-07-24T13:08:26.661Z,1.77
2023-07-24T13:10:53.855Z,1.75
2023-07-24T13:13:20.977Z,2.03
2023-07-24T13:15:48.077Z,1.63
2023-07-24T13:18:28.507Z,1.50
2023-07-24T13:20:57.876Z,1.77
2023-07-24T13:23:25.138Z,1.70
2023-07-24T13:25:53.485Z,1.80
2023-07-24T13:28:20.621Z,2.50
2023-07-24T13:30:47.776Z,1.93
2023-07-24T13:33:14.876Z,2.10
2023-07-24T13:35:42.007Z,2.00
2023-07-24T13:38:11.054Z,2.23
2023-07-24T13:40:38.348Z,2.00
2023-07-24T13:43:05.459Z,1.97
2023-07-24T13:45:32.565Z,1.93
2023-07-24T13:47:59.744Z,2.07
2023-07-24T13:50:28.756Z,2.13
2023-07-24T13:52:55.858Z,2.23
2023-07-24T13:55:24.326Z,2.20
2023-07-24T13:57:51.410Z,2.17
2023-07-24T14:00:18.942Z,2.07
2023-07-24T14:02:46.396Z,2.10
2023-07-24T14:05:13.591Z,1.83
2023-07-24T14:07:40.901Z,1.93
2023-07-24T14:10:08.447Z,2.10
2023-07-24T14:12:36.897Z,1.40
2023-07-24T14:15:04.184Z,1.83
2023-07-24T14:17:31.283Z,1.60
2023-07-24T14:19:58.438Z,2.00
2023-07-24T14:22:28.159Z,1.40
2023-07-24T14:24:55.643Z,2.40
2023-07-24T14:27:22.771Z,1.90
2023-07-24T14:29:51.426Z,1.60
2023-07-24T14:32:18.493Z,1.60
2023-07-24T14:34:45.631Z,1.70
2023-07-24T14:37:12.717Z,1.70
2023-07-24T14:39:39.806Z,1.90
2023-07-24T14:42:07.177Z,1.83
2023-07-24T14:44:34.378Z,1.60
2023-07-24T14:47:02.831Z,1.57
2023-07-24T14:49:29.946Z,1.60
2023-07-24T14:51:57.059Z,1.50
2023-07-24T14:54:24.188Z,2.23
2023-07-24T14:56:57.390Z,2.17
2023-07-24T14:59:31.642Z,2.13
2023-07-24T15:01:58.752Z,2.30
2023-07-24T15:04:27.251Z,2.50
2023-07-24T15:06:54.417Z,3.20
2023-07-24T15:09:21.508Z,2.53
2023-07-24T15:11:48.579Z,2.77
2023-07-24T15:14:15.682Z,2.40
2023-07-24T15:16:42.742Z,2.60
2023-07-24T15:19:09.840Z,2.47
2023-07-24T15:21:38.287Z,2.50
2023-07-24T15:24:05.575Z,2.20
2023-07-24T15:26:32.664Z,2.20
2023-07-24T15:28:59.779Z,2.00
2023-07-24T15:31:27.037Z,2.10
2023-07-24T15:33:54.213Z,2.37
2023-07-24T15:36:21.290Z,2.23
2023-07-24T15:38:49.696Z,2.63
2023-07-24T15:41:16.777Z,2.20
2023-07-24T15:43:43.882Z,1.97
2023-07-24T15:46:11.130Z,2.20
2023-07-24T15:48:38.343Z,1.70
2023-07-24T15:51:05.515Z,2.30
2023-07-24T15:53:32.707Z,1.50
2023-07-24T15:56:01.205Z,2.00
2023-07-24T15:58:28.305Z,2.40
2023-07-24T16:00:55.610Z,1.90
2023-07-24T16:03:22.813Z,2.30
2023-07-24T16:05:49.917Z,2.40
2023-07-24T16:08:17.005Z,2.50
2023-07-24T16:10:44.089Z,2.30
2023-07-24T16:13:12.557Z,2.47
2023-07-24T16:18:09.663Z,2.50
2023-07-24T16:20:36.836Z,3.10
2023-07-24T16:23:03.982Z,3.10
2023-07-24T16:25:31.072Z,2.77
2023-07-24T16:27:58.330Z,3.80
2023-07-24T16:30:27.728Z,3.67
2023-07-24T16:32:55.178Z,3.93
2023-07-24T16:35:22.327Z,3.50
2023-07-24T16:37:49.443Z,3.60
2023-07-24T16:40:16.985Z,4.00
2023-07-24T16:42:46.346Z,5.00
2023-07-24T16:45:29.278Z,3.87
2023-07-24T16:48:03.685Z,4.77
2023-07-24T16:50:31.021Z,5.73
2023-07-24T16:52:58.092Z,5.20
2023-07-24T16:55:27.201Z,5.27
2023-07-24T16:57:56.715Z,5.70
2023-07-24T17:00:23.883Z,6.40
2023-07-24T17:02:51.175Z,6.00
2023-07-24T17:05:19.724Z,5.67
2023-07-24T17:07:46.845Z,5.27
2023-07-24T17:10:13.997Z,5.20
2023-07-24T17:12:41.174Z,5.80
2023-07-24T17:15:08.838Z,5.57
2023-07-24T17:17:36.075Z,5.97
2023-07-24T17:20:03.341Z,5.00
2023-07-24T17:22:31.936Z,4.97
2023-07-24T17:24:59.462Z,4.80
2023-07-24T17:27:26.727Z,5.23
2023-07-24T17:29:53.912Z,5.30
2023-07-24T17:32:21.048Z,5.53
2023-07-24T17:34:48.131Z,4.90
2023-07-24T17:37:28.486Z,5.00
2023-07-24T17:40:04.192Z,4.80
2023-07-24T17:42:31.404Z,4.17
2023-07-24T17:44:58.636Z,4.97
2023-07-24T17:47:25.892Z,5.80
2023-07-24T17:50:05.805Z,5.60
2023-07-24T17:52:34.744Z,3.60
2023-07-24T17:55:01.846Z,3.43
2023-07-24T17:57:30.504Z,4.00
2023-07-24T17:59:57.665Z,3.30
2023-07-24T18:02:25.039Z,3.90
2023-07-24T18:04:52.146Z,3.20
2023-07-24T18:07:19.234Z,3.13
2023-07-24T18:09:46.345Z,3.13
2023-07-24T18:12:13.956Z,2.80
2023-07-24T18:14:42.507Z,3.33
2023-07-24T18:17:09.599Z,3.43
2023-07-24T18:19:36.666Z,3.43
2023-07-24T18:22:03.905Z,3.50
2023-07-24T18:24:31.074Z,3.93
2023-07-24T18:26:58.207Z,3.80
2023-07-24T18:29:25.356Z,3.33
2023-07-24T18:31:53.847Z,3.57
2023-07-24T18:34:21.069Z,3.77
2023-07-24T18:36:48.178Z,3.50
2023-07-24T18:39:15.233Z,3.97
2023-07-24T18:41:44.604Z,4.50
2023-07-24T18:44:13.472Z,4.60
2023-07-24T18:46:40.676Z,4.93
2023-07-24T18:49:09.068Z,4.50
2023-07-24T18:51:36.195Z,3.50
2023-07-24T18:54:03.412Z,4.30
2023-07-24T18:56:30.554Z,3.70
2023-07-24T18:58:57.787Z,4.00
2023-07-24T19:01:25.166Z,5.60
2023-07-24T19:03:52.247Z,4.30
2023-07-24T19:06:20.729Z,4.10
2023-07-24T19:08:47.858Z,5.37
2023-07-24T19:11:15.104Z,5.67
2023-07-24T19:13:42.217Z,5.97
2023-07-24T19:16:09.341Z,5.50
2023-07-24T19:18:36.573Z,5.20
2023-07-24T19:21:03.665Z,5.50
2023-07-24T19:23:32.187Z,5.07
2023-07-24T19:25:59.250Z,5.77
2023-07-24T19:28:26.323Z,6.97
2023-07-24T19:30:53.514Z,6.33
2023-07-24T19:33:20.591Z,5.70
2023-07-24T19:35:47.714Z,6.13
2023-07-24T19:38:14.777Z,6.80
2023-07-24T19:40:43.190Z,6.70
2023-07-24T19:43:10.262Z,7.87
2023-07-24T19:45:39.162Z,8.07
2023-07-24T19:48:06.673Z,7.80
2023-07-24T19:50:33.859Z,7.83
2023-07-24T19:53:00.940Z,7.17
2023-07-24T19:55:28.055Z,8.20
2023-07-24T19:57:56.479Z,8.87
2023-07-24T20:00:25.137Z,7.90
2023-07-24T20:02:54.884Z,9.57
2023-07-24T20:05:21.981Z,8.37
2023-07-24T20:07:49.139Z,7.27
2023-07-24T20:10:16.234Z,9.40
2023-07-24T20:12:43.312Z,9.30
2023-07-24T20:15:11.757Z,8.57
2023-07-24T20:17:38.979Z,9.00
2023-07-24T20:20:06.860Z,9.63
2023-07-24T20:22:33.976Z,8.97
2023-07-24T20:25:01.247Z,9.10
2023-07-24T20:27:28.337Z,9.17
2023-07-24T20:29:55.476Z,8.80
2023-07-24T20:32:24.067Z,8.83
2023-07-24T20:34:51.168Z,8.63
2023-07-24T20:37:18.255Z,9.47
2023-07-24T20:39:45.399Z,10.00
2023-07-24T20:42:12.467Z,9.00
2023-07-24T20:44:39.634Z,10.10
2023-07-24T20:47:06.947Z,9.83
2023-07-24T20:49:35.548Z,9.90
2023-07-24T20:52:02.683Z,8.90
2023-07-24T20:54:29.829Z,10.13
2023-07-24T20:56:56.907Z,9.60
2023-07-24T20:59:23.943Z,9.77
2023-07-24T21:01:51.063Z,10.53
2023-07-24T21:04:18.552Z,10.50
2023-07-24T21:06:47.014Z,9.90
2023-07-24T21:09:14.180Z,10.50
2023-07-24T21:11:41.340Z,9.57
2023-07-24T21:14:08.484Z,9.77
2023-07-24T21:16:35.788Z,9.20
2023-07-24T21:19:02.866Z,8.87
2023-07-24T21:21:30.272Z,9.47
2023-07-24T21:23:58.970Z,8.77
2023-07-24T21:26:28.934Z,10.50
2023-07-24T21:28:56.392Z,9.80
2023-07-24T21:31:23.490Z,9.27
2023-07-24T21:33:50.621Z,8.57
2023-07-24T21:36:17.738Z,8.20
2023-07-24T21:38:44.905Z,7.10
2023-07-24T21:41:13.394Z,7.90
2023-07-24T21:43:40.506Z,7.77
2023-07-24T21:46:07.610Z,7.20
2023-07-24T21:48:34.850Z,7.07
2023-07-24T21:51:02.052Z,6.90
2023-07-24T21:53:29.148Z,4.83
2023-07-24T21:55:56.360Z,5.47
2023-07-24T21:58:24.908Z,4.67
2023-07-24T22:00:51.996Z,4.77
2023-07-24T22:03:19.100Z,3.60
2023-07-24T22:05:46.241Z,4.20
2023-07-24T22:08:13.452Z,4.60
2023-07-24T22:10:40.784Z,4.70
2023-07-24T22:13:07.957Z,3.80
2023-07-24T22:15:36.424Z,3.70
2023-07-24T22:18:03.558Z,5.43
2023-07-24T22:20:40.244Z,4.50
2023-07-24T22:23:08.571Z,4.60
2023-07-24T22:25:35.720Z,3.97
2023-07-24T22:28:02.826Z,4.23
2023-07-24T22:30:29.997Z,3.60
2023-07-24T22:32:58.507Z,4.33
2023-07-24T22:35:25.617Z,4.07
2023-07-24T22:37:52.740Z,5.13
2023-07-24T22:40:19.881Z,4.30
2023-07-24T22:42:47.063Z,4.37
2023-07-24T22:45:14.120Z,3.63
2023-07-24T22:47:41.338Z,4.37
2023-07-24T22:50:10.517Z,4.50
2023-07-24T22:52:37.716Z,3.50
2023-07-24T22:55:05.159Z,4.60
2023-07-24T22:57:32.264Z,3.70
2023-07-24T22:59:59.459Z,3.30
2023-07-24T23:02:26.634Z,3.60
2023-07-24T23:04:53.784Z,4.10
2023-07-24T23:07:22.243Z,3.40
2023-07-24T23:09:49.356Z,2.93
2023-07-24T23:12:16.439Z,3.70
2023-07-24T23:14:43.561Z,2.70
2023-07-24T23:17:10.702Z,3.57
2023-07-24T23:19:37.784Z,2.40
2023-07-24T23:22:05.036Z,3.10
2023-07-24T23:24:33.604Z,4.40
2023-07-24T23:27:02.138Z,3.13
2023-07-24T23:29:29.248Z,2.80
2023-07-24T23:31:56.398Z,3.57
2023-07-24T23:34:23.552Z,3.17
2023-07-24T23:36:50.816Z,3.10
2023-07-24T23:39:17.892Z,3.47
2023-07-24T23:41:45.012Z,2.87
2023-07-24T23:44:13.551Z,2.87
2023-07-24T23:46:40.754Z,3.33
2023-07-24T23:49:07.806Z,3.40
2023-07-24T23:51:35.094Z,3.03
2023-07-24T23:54:02.384Z,2.80
2023-07-24T23:56:29.462Z,3.13
2023-07-24T23:58:56.578Z,2.90
